createdAt,value
2017-07-31T00:00:06.663Z,1005.65
2017-07-31T00:01:06.661Z,1005.72
2017-07-31T00:02:06.639Z,1005.73
2017-07-31T00:03:06.624Z,1005.77
2017-07-31T00:04:06.610Z,1005.81
2017-07-31T00:05:06.594Z,1005.84
2017-07-31T00:06:06.584Z,1005.82
2017-07-31T00:07:06.573Z,1005.85
2017-07-31T00:08:06.552Z,1005.87
2017-07-31T00:09:06.538Z,1005.95
2017-07-31T00:10:06.526Z,1005.97
2017-07-31T00:11:06.522Z,1005.99
2017-07-31T00:12:06.501Z,1005.92
2017-07-31T00:13:06.481Z,1005.93
2017-07-31T00:14:06.469Z,1005.9
2017-07-31T00:15:06.456Z,1005.85
2017-07-31T00:16:06.443Z,1005.74
2017-07-31T00:17:06.424Z,1005.68
2017-07-31T00:18:06.418Z,1005.64
2017-07-31T00:19:06.401Z,1005.66
2017-07-31T00:20:06.386Z,1005.69
2017-07-31T00:21:06.370Z,1005.72
2017-07-31T00:22:06.362Z,1005.71
2017-07-31T00:23:06.350Z,1005.73
2017-07-31T00:24:06.333Z,1005.79
2017-07-31T00:25:06.324Z,1005.82
2017-07-31T00:26:06.301Z,1005.84
2017-07-31T00:27:06.290Z,1005.9
2017-07-31T00:28:06.274Z,1005.88
2017-07-31T00:29:06.261Z,1005.81
2017-07-31T00:30:06.252Z,1005.8
2017-07-31T00:31:06.232Z,1005.73
2017-07-31T00:32:06.222Z,1005.75
2017-07-31T00:33:06.202Z,1005.73
2017-07-31T00:34:06.188Z,1005.76
2017-07-31T00:35:06.182Z,1005.72
2017-07-31T00:36:06.166Z,1005.74
2017-07-31T00:37:06.153Z,1005.71
2017-07-31T00:38:06.137Z,1005.65
2017-07-31T00:39:06.114Z,1005.66
2017-07-31T00:40:06.107Z,1005.65
2017-07-31T00:41:06.093Z,1005.64
2017-07-31T00:42:06.074Z,1005.62
2017-07-31T00:43:06.064Z,1005.59
2017-07-31T00:44:06.041Z,1005.55
2017-07-31T00:45:06.032Z,1005.55
2017-07-31T00:46:06.012Z,1005.53
2017-07-31T00:47:06.001Z,1005.49
2017-07-31T00:48:06.036Z,1005.46
2017-07-31T00:49:05.971Z,1005.48
2017-07-31T00:50:05.962Z,1005.5
2017-07-31T00:51:05.941Z,1005.49
2017-07-31T00:52:05.924Z,1005.45
2017-07-31T00:53:05.910Z,1005.46
2017-07-31T00:54:05.903Z,1005.48
2017-07-31T00:55:05.881Z,1005.46
2017-07-31T00:56:05.874Z,1005.46
2017-07-31T00:57:05.852Z,1005.48
2017-07-31T00:58:05.942Z,1005.51
2017-07-31T00:59:05.823Z,1005.51
2017-07-31T01:00:05.811Z,1005.56
2017-07-31T01:01:05.803Z,1005.59
2017-07-31T01:02:05.794Z,1005.59
2017-07-31T01:03:05.766Z,1005.64
2017-07-31T01:04:05.772Z,1005.66
2017-07-31T01:05:05.743Z,1005.67
2017-07-31T01:06:05.724Z,1005.66
2017-07-31T01:07:05.711Z,1005.68
2017-07-31T01:08:05.695Z,1005.67
2017-07-31T01:09:05.684Z,1005.69
2017-07-31T01:10:05.661Z,1005.66
2017-07-31T01:11:05.651Z,1005.7
2017-07-31T01:12:05.633Z,1005.67
2017-07-31T01:13:05.622Z,1005.64
2017-07-31T01:14:05.608Z,1005.69
2017-07-31T01:15:05.590Z,1005.72
2017-07-31T01:16:05.573Z,1005.68
2017-07-31T01:17:05.561Z,1005.71
2017-07-31T01:18:05.550Z,1005.7
2017-07-31T01:19:05.537Z,1005.7
2017-07-31T01:20:05.521Z,1005.68
2017-07-31T01:21:05.505Z,1005.63
2017-07-31T01:22:05.488Z,1005.64
2017-07-31T01:23:05.471Z,1005.63
2017-07-31T01:24:05.459Z,1005.65
2017-07-31T01:25:05.449Z,1005.62
2017-07-31T01:26:05.432Z,1005.63
2017-07-31T01:27:05.412Z,1005.62
2017-07-31T01:28:05.396Z,1005.66
2017-07-31T01:29:05.384Z,1005.65
2017-07-31T01:30:05.371Z,1005.69
2017-07-31T01:31:05.354Z,1005.67
2017-07-31T01:32:05.340Z,1005.67
2017-07-31T01:33:05.323Z,1005.71
2017-07-31T01:34:05.313Z,1005.7
2017-07-31T01:35:05.295Z,1005.68
2017-07-31T01:36:05.284Z,1005.66
2017-07-31T01:37:05.271Z,1005.67
2017-07-31T01:38:05.251Z,1005.65
2017-07-31T01:39:05.236Z,1005.64
2017-07-31T01:40:05.225Z,1005.59
2017-07-31T01:41:05.232Z,1005.58
2017-07-31T01:42:05.200Z,1005.61
2017-07-31T01:43:05.181Z,1005.61
2017-07-31T01:44:05.169Z,1005.62
2017-07-31T01:45:05.153Z,1005.61
2017-07-31T01:46:05.138Z,1005.68
2017-07-31T01:47:05.127Z,1005.62
2017-07-31T01:48:05.109Z,1005.64
2017-07-31T01:49:05.095Z,1005.62
2017-07-31T01:50:05.081Z,1005.62
2017-07-31T01:51:05.067Z,1005.61
2017-07-31T01:52:05.050Z,1005.62
2017-07-31T01:53:05.034Z,1005.62
2017-07-31T01:54:05.024Z,1005.64
2017-07-31T01:55:05.027Z,1005.66
2017-07-31T01:56:04.996Z,1005.63
2017-07-31T01:57:04.979Z,1005.63
2017-07-31T01:58:04.966Z,1005.65
2017-07-31T01:59:04.950Z,1005.66
2017-07-31T02:00:04.940Z,1005.69
2017-07-31T02:01:04.926Z,1005.65
2017-07-31T02:02:04.907Z,1005.66
2017-07-31T02:03:04.894Z,1005.62
2017-07-31T02:04:04.878Z,1005.59
2017-07-31T02:05:04.870Z,1005.57
2017-07-31T02:06:04.849Z,1005.53
2017-07-31T02:07:04.839Z,1005.47
2017-07-31T02:08:04.823Z,1005.49
2017-07-31T02:09:04.809Z,1005.43
2017-07-31T02:10:04.790Z,1005.45
2017-07-31T02:11:04.774Z,1005.45
2017-07-31T02:12:04.766Z,1005.49
2017-07-31T02:13:04.749Z,1005.49
2017-07-31T02:14:04.737Z,1005.52
2017-07-31T02:15:04.721Z,1005.51
2017-07-31T02:16:04.705Z,1005.53
2017-07-31T02:17:04.690Z,1005.53
2017-07-31T02:18:04.674Z,1005.53
2017-07-31T02:19:04.668Z,1005.59
2017-07-31T02:20:04.649Z,1005.57
2017-07-31T02:21:04.630Z,1005.59
2017-07-31T02:22:04.622Z,1005.61
2017-07-31T02:23:04.709Z,1005.6
2017-07-31T02:24:04.587Z,1005.61
2017-07-31T02:25:04.571Z,1005.64
2017-07-31T02:26:04.562Z,1005.61
2017-07-31T02:27:04.550Z,1005.62
2017-07-31T02:28:04.531Z,1005.65
2017-07-31T02:29:04.581Z,1005.6
2017-07-31T02:30:04.501Z,1005.62
2017-07-31T02:31:04.491Z,1005.6
2017-07-31T02:32:04.497Z,1005.57
2017-07-31T02:33:04.460Z,1005.58
2017-07-31T02:34:04.439Z,1005.56
2017-07-31T02:35:04.425Z,1005.55
2017-07-31T02:36:04.412Z,1005.58
2017-07-31T02:37:04.403Z,1005.56
2017-07-31T02:38:04.382Z,1005.6
2017-07-31T02:39:04.420Z,1005.59
2017-07-31T02:40:04.352Z,1005.58
2017-07-31T02:41:04.354Z,1005.59
2017-07-31T02:42:04.321Z,1005.59
2017-07-31T02:43:04.338Z,1005.59
2017-07-31T02:44:04.296Z,1005.6
2017-07-31T02:45:04.281Z,1005.58
2017-07-31T02:46:04.262Z,1005.63
2017-07-31T02:47:04.251Z,1005.64
2017-07-31T02:48:04.233Z,1005.62
2017-07-31T02:49:04.219Z,1005.65
2017-07-31T02:50:04.203Z,1005.61
2017-07-31T02:51:04.242Z,1005.6
2017-07-31T02:52:04.175Z,1005.58
2017-07-31T02:53:04.158Z,1005.59
2017-07-31T02:54:04.151Z,1005.63
2017-07-31T02:55:04.130Z,1005.59
2017-07-31T02:56:04.117Z,1005.61
2017-07-31T02:57:04.102Z,1005.64
2017-07-31T02:58:04.090Z,1005.65
2017-07-31T02:59:04.070Z,1005.65
2017-07-31T03:00:04.057Z,1005.6
2017-07-31T03:01:04.040Z,1005.62
2017-07-31T03:02:04.032Z,1005.59
2017-07-31T03:03:04.010Z,1005.62
2017-07-31T03:04:03.997Z,1005.63
2017-07-31T03:05:03.980Z,1005.63
2017-07-31T03:06:03.971Z,1005.62
2017-07-31T03:07:03.949Z,1005.61
2017-07-31T03:08:03.937Z,1005.67
2017-07-31T03:09:03.923Z,1005.63
2017-07-31T03:10:03.908Z,1005.65
2017-07-31T03:11:03.899Z,1005.65
2017-07-31T03:12:03.878Z,1005.64
2017-07-31T03:13:03.861Z,1005.66
2017-07-31T03:14:03.850Z,1005.65
2017-07-31T03:15:03.843Z,1005.66
2017-07-31T03:16:03.821Z,1005.68
2017-07-31T03:17:03.812Z,1005.69
2017-07-31T03:18:03.791Z,1005.69
2017-07-31T03:19:03.779Z,1005.7
2017-07-31T03:20:03.760Z,1005.75
2017-07-31T03:21:03.750Z,1005.74
2017-07-31T03:22:03.729Z,1005.75
2017-07-31T03:23:03.712Z,1005.77
2017-07-31T03:24:03.700Z,1005.77
2017-07-31T03:25:03.686Z,1005.84
2017-07-31T03:26:03.670Z,1005.86
2017-07-31T03:27:03.656Z,1005.9
2017-07-31T03:28:03.639Z,1005.88
2017-07-31T03:29:03.625Z,1005.92
2017-07-31T03:30:03.610Z,1005.92
2017-07-31T03:31:03.594Z,1005.9
2017-07-31T03:32:03.580Z,1005.91
2017-07-31T03:33:03.567Z,1005.88
2017-07-31T03:34:03.555Z,1005.91
2017-07-31T03:35:03.542Z,1005.92
2017-07-31T03:36:03.522Z,1005.97
2017-07-31T03:37:03.509Z,1006
2017-07-31T03:38:03.492Z,1006.05
2017-07-31T03:39:03.480Z,1006.06
2017-07-31T03:40:03.462Z,1006.04
2017-07-31T03:41:03.450Z,1006.11
2017-07-31T03:42:03.431Z,1006.09
2017-07-31T03:43:03.419Z,1006.09
2017-07-31T03:44:03.400Z,1006.08
2017-07-31T03:45:03.391Z,1006.04
2017-07-31T03:46:03.373Z,1006.06
2017-07-31T03:47:03.360Z,1006.07
2017-07-31T03:48:03.342Z,1006.09
2017-07-31T03:49:03.331Z,1006.12
2017-07-31T03:50:03.313Z,1006.09
2017-07-31T03:51:03.299Z,1006.13
2017-07-31T03:52:03.280Z,1006.14
2017-07-31T03:53:03.270Z,1006.17
2017-07-31T03:54:03.261Z,1006.19
2017-07-31T03:55:03.243Z,1006.18
2017-07-31T03:56:03.474Z,1006.15
2017-07-31T03:57:03.215Z,1006.18
2017-07-31T03:58:03.191Z,1006.19
2017-07-31T03:59:03.181Z,1006.17
2017-07-31T04:00:03.160Z,1006.18
2017-07-31T04:01:03.184Z,1006.2
2017-07-31T04:02:03.132Z,1006.21
2017-07-31T04:03:03.121Z,1006.26
2017-07-31T04:04:03.101Z,1006.23
2017-07-31T04:05:03.089Z,1006.25
2017-07-31T04:06:03.070Z,1006.27
2017-07-31T04:07:03.059Z,1006.28
2017-07-31T04:08:03.053Z,1006.29
2017-07-31T04:09:03.029Z,1006.29
2017-07-31T04:10:03.013Z,1006.35
2017-07-31T04:11:02.998Z,1006.34
2017-07-31T04:12:02.982Z,1006.36
2017-07-31T04:13:02.969Z,1006.36
2017-07-31T04:14:02.950Z,1006.38
2017-07-31T04:15:02.934Z,1006.38
2017-07-31T04:16:02.931Z,1006.38
2017-07-31T04:17:02.906Z,1006.45
2017-07-31T04:18:02.890Z,1006.49
2017-07-31T04:19:02.881Z,1006.52
2017-07-31T04:20:02.863Z,1006.51
2017-07-31T04:21:02.846Z,1006.5
2017-07-31T04:22:02.931Z,1006.51
2017-07-31T04:23:02.820Z,1006.54
2017-07-31T04:24:02.813Z,1006.57
2017-07-31T04:25:02.792Z,1006.55
2017-07-31T04:26:02.771Z,1006.57
2017-07-31T04:27:02.760Z,1006.61
2017-07-31T04:28:02.763Z,1006.62
2017-07-31T04:29:02.729Z,1006.61
2017-07-31T04:30:02.714Z,1006.64
2017-07-31T04:31:02.693Z,1006.63
2017-07-31T04:32:02.680Z,1006.65
2017-07-31T04:33:02.669Z,1006.63
2017-07-31T04:34:02.724Z,1006.6
2017-07-31T04:35:02.636Z,1006.6
2017-07-31T04:36:02.621Z,1006.62
2017-07-31T04:37:02.611Z,1006.62
2017-07-31T04:38:02.648Z,1006.63
2017-07-31T04:39:02.581Z,1006.65
2017-07-31T04:40:02.558Z,1006.64
2017-07-31T04:41:02.542Z,1006.64
2017-07-31T04:42:02.529Z,1006.61
2017-07-31T04:43:02.511Z,1006.64
2017-07-31T04:44:02.499Z,1006.66
2017-07-31T04:45:02.484Z,1006.7
2017-07-31T04:46:02.468Z,1006.72
2017-07-31T04:47:02.452Z,1006.75
2017-07-31T04:48:02.435Z,1006.77
2017-07-31T04:49:02.420Z,1006.78
2017-07-31T04:50:02.405Z,1006.75
2017-07-31T04:51:02.391Z,1006.77
2017-07-31T04:52:02.375Z,1006.73
2017-07-31T04:53:02.388Z,1006.7
2017-07-31T04:54:02.350Z,1006.7
2017-07-31T04:55:02.334Z,1006.68
2017-07-31T04:56:02.330Z,1006.66
2017-07-31T04:57:02.305Z,1006.64
2017-07-31T04:58:02.291Z,1006.67
2017-07-31T04:59:02.293Z,1006.66
2017-07-31T05:00:02.263Z,1006.66
2017-07-31T05:01:02.246Z,1006.66
2017-07-31T05:02:02.228Z,1006.67
2017-07-31T05:03:02.211Z,1006.65
2017-07-31T05:04:02.193Z,1006.68
2017-07-31T05:05:02.183Z,1006.74
2017-07-31T05:06:02.164Z,1006.7
2017-07-31T05:07:02.153Z,1006.73
2017-07-31T05:08:02.143Z,1006.7
2017-07-31T05:09:02.120Z,1006.72
2017-07-31T05:10:02.111Z,1006.74
2017-07-31T05:11:02.091Z,1006.72
2017-07-31T05:12:02.073Z,1006.74
2017-07-31T05:13:02.062Z,1006.75
2017-07-31T05:14:02.052Z,1006.78
2017-07-31T05:15:02.032Z,1006.76
2017-07-31T05:16:02.023Z,1006.78
2017-07-31T05:17:02.003Z,1006.78
2017-07-31T05:18:01.992Z,1006.79
2017-07-31T05:19:01.972Z,1006.79
2017-07-31T05:20:01.960Z,1006.81
2017-07-31T05:21:01.943Z,1006.75
2017-07-31T05:22:01.932Z,1006.76
2017-07-31T05:23:01.921Z,1006.77
2017-07-31T05:24:01.902Z,1006.75
2017-07-31T05:25:01.886Z,1006.74
2017-07-31T05:26:01.870Z,1006.78
2017-07-31T05:27:01.862Z,1006.75
2017-07-31T05:28:01.841Z,1006.75
2017-07-31T05:29:01.829Z,1006.77
2017-07-31T05:30:01.811Z,1006.82
2017-07-31T05:31:01.803Z,1006.8
2017-07-31T05:32:01.781Z,1006.79
2017-07-31T05:33:01.771Z,1006.79
2017-07-31T05:34:01.753Z,1006.83
2017-07-31T05:35:01.740Z,1006.8
2017-07-31T05:36:01.728Z,1006.83
2017-07-31T05:37:01.712Z,1006.77
2017-07-31T05:38:01.697Z,1006.78
2017-07-31T05:39:01.691Z,1006.75
2017-07-31T05:40:01.674Z,1006.76
2017-07-31T05:41:01.649Z,1006.76
2017-07-31T05:42:01.642Z,1006.79
2017-07-31T05:43:01.621Z,1006.79
2017-07-31T05:44:01.615Z,1006.77
2017-07-31T05:45:01.603Z,1006.76
2017-07-31T05:46:01.582Z,1006.75
2017-07-31T05:47:01.570Z,1006.78
2017-07-31T05:48:01.555Z,1006.76
2017-07-31T05:49:01.543Z,1006.74
2017-07-31T05:50:01.520Z,1006.74
2017-07-31T05:51:01.512Z,1006.69
2017-07-31T05:52:01.490Z,1006.69
2017-07-31T05:53:01.483Z,1006.66
2017-07-31T05:54:01.465Z,1006.66
2017-07-31T05:55:01.453Z,1006.66
2017-07-31T05:56:01.436Z,1006.66
2017-07-31T05:57:01.418Z,1006.68
2017-07-31T05:58:01.408Z,1006.64
2017-07-31T05:59:01.402Z,1006.67
2017-07-31T06:00:01.380Z,1006.7
2017-07-31T06:01:01.366Z,1006.7
2017-07-31T06:02:01.362Z,1006.73
2017-07-31T06:03:01.340Z,1006.71
2017-07-31T06:04:01.322Z,1006.74
2017-07-31T06:05:01.308Z,1006.69
2017-07-31T06:06:01.297Z,1006.7
2017-07-31T06:07:01.276Z,1006.7
2017-07-31T06:08:01.268Z,1006.67
2017-07-31T06:09:01.253Z,1006.68
2017-07-31T06:10:01.243Z,1006.65
2017-07-31T06:11:01.222Z,1006.62
2017-07-31T06:12:01.211Z,1006.59
2017-07-31T06:13:01.193Z,1006.63
2017-07-31T06:14:01.181Z,1006.62
2017-07-31T06:15:01.170Z,1006.56
2017-07-31T06:16:01.151Z,1006.6
2017-07-31T06:17:01.141Z,1006.63
2017-07-31T06:18:01.122Z,1006.61
2017-07-31T06:19:01.113Z,1006.6
2017-07-31T06:20:01.097Z,1006.57
2017-07-31T06:21:01.083Z,1006.6
2017-07-31T06:22:01.066Z,1006.56
2017-07-31T06:23:01.052Z,1006.55
2017-07-31T06:24:01.034Z,1006.55
2017-07-31T06:25:01.071Z,1006.56
2017-07-31T06:26:01.011Z,1006.57
2017-07-31T06:27:00.997Z,1006.54
2017-07-31T06:28:00.981Z,1006.6
2017-07-31T06:29:00.968Z,1006.56
2017-07-31T06:30:00.952Z,1006.58
2017-07-31T06:31:00.940Z,1006.56
2017-07-31T06:32:00.929Z,1006.57
2017-07-31T06:33:00.909Z,1006.57
2017-07-31T06:34:00.902Z,1006.58
2017-07-31T06:35:00.881Z,1006.65
2017-07-31T06:36:00.871Z,1006.68
2017-07-31T06:37:00.852Z,1006.71
2017-07-31T06:38:00.840Z,1006.7
2017-07-31T06:39:00.829Z,1006.69
2017-07-31T06:40:00.810Z,1006.73
2017-07-31T06:41:00.803Z,1006.72
2017-07-31T06:42:00.782Z,1006.68
2017-07-31T06:43:00.771Z,1006.71
2017-07-31T06:44:00.751Z,1006.7
2017-07-31T06:45:00.736Z,1006.69
2017-07-31T06:46:00.730Z,1006.73
2017-07-31T06:47:00.710Z,1006.75
2017-07-31T06:48:00.700Z,1006.73
2017-07-31T06:49:00.682Z,1006.76
2017-07-31T06:50:00.669Z,1006.77
2017-07-31T06:51:00.655Z,1006.77
2017-07-31T06:52:00.641Z,1006.76
2017-07-31T06:53:00.626Z,1006.78
2017-07-31T06:54:00.615Z,1006.82
2017-07-31T06:55:00.604Z,1006.83
2017-07-31T06:56:00.586Z,1006.84
2017-07-31T06:57:00.572Z,1006.87
2017-07-31T06:58:00.558Z,1006.87
2017-07-31T06:59:00.549Z,1006.91
2017-07-31T07:00:00.534Z,1006.91
2017-07-31T07:01:00.525Z,1006.9
2017-07-31T07:02:00.505Z,1006.92
2017-07-31T07:03:00.488Z,1006.9
2017-07-31T07:04:00.477Z,1006.88
2017-07-31T07:05:00.464Z,1006.87
2017-07-31T07:06:00.445Z,1006.92
2017-07-31T07:07:00.440Z,1006.87
2017-07-31T07:08:00.420Z,1006.88
2017-07-31T07:09:00.406Z,1006.89
2017-07-31T07:10:00.392Z,1006.89
2017-07-31T07:11:00.385Z,1006.84
2017-07-31T07:12:00.365Z,1006.84
2017-07-31T07:13:00.354Z,1006.85
2017-07-31T07:14:00.340Z,1006.87
2017-07-31T07:15:00.328Z,1006.88
2017-07-31T07:16:00.311Z,1006.88
2017-07-31T07:17:00.300Z,1006.86
2017-07-31T07:18:00.290Z,1006.9
2017-07-31T07:19:00.276Z,1006.87
2017-07-31T07:20:00.261Z,1006.84
2017-07-31T07:21:00.248Z,1006.86
2017-07-31T07:22:00.232Z,1006.87
2017-07-31T07:23:00.219Z,1006.87
2017-07-31T07:24:00.206Z,1006.86
2017-07-31T07:25:00.191Z,1006.88
2017-07-31T07:26:00.177Z,1006.87
2017-07-31T07:27:00.166Z,1006.86
2017-07-31T07:28:00.160Z,1006.9
2017-07-31T07:29:00.146Z,1006.88
2017-07-31T07:30:00.127Z,1006.92
2017-07-31T07:31:00.112Z,1006.83
2017-07-31T07:32:00.107Z,1006.89
2017-07-31T07:33:00.087Z,1006.85
2017-07-31T07:34:00.075Z,1006.86
2017-07-31T07:35:00.058Z,1006.8
2017-07-31T07:36:00.048Z,1006.81
2017-07-31T07:37:00.034Z,1006.8
2017-07-31T07:38:00.025Z,1006.79
2017-07-31T07:39:00.008Z,1006.84
2017-07-31T07:39:59.995Z,1006.81
2017-07-31T07:40:59.990Z,1006.8
2017-07-31T07:41:59.968Z,1006.79
2017-07-31T07:42:59.954Z,1006.75
2017-07-31T07:43:59.944Z,1006.79
2017-07-31T07:44:59.937Z,1006.74
2017-07-31T07:45:59.917Z,1006.79
2017-07-31T07:46:59.909Z,1006.78
2017-07-31T07:47:59.895Z,1006.79
2017-07-31T07:48:59.886Z,1006.82
2017-07-31T07:49:59.871Z,1006.83
2017-07-31T07:50:59.857Z,1006.83
2017-07-31T07:51:59.845Z,1006.8
2017-07-31T07:52:59.835Z,1006.83
2017-07-31T07:53:59.835Z,1006.84
2017-07-31T07:54:59.806Z,1006.83
2017-07-31T07:55:59.793Z,1006.79
2017-07-31T07:56:59.778Z,1006.8
2017-07-31T07:57:59.767Z,1006.79
2017-07-31T07:58:59.757Z,1006.76
2017-07-31T07:59:59.742Z,1006.8
2017-07-31T08:00:59.735Z,1006.79
2017-07-31T08:01:59.718Z,1006.81
2017-07-31T08:02:59.706Z,1006.84
2017-07-31T08:03:59.694Z,1006.87
2017-07-31T08:04:59.683Z,1007.01
2017-07-31T08:05:59.668Z,1007.26
2017-07-31T08:06:59.657Z,1007.48
2017-07-31T08:07:59.652Z,1007.42
2017-07-31T08:08:59.635Z,1007.85
2017-07-31T08:09:59.625Z,1007.83
2017-07-31T08:10:59.611Z,1006.93
2017-07-31T08:11:59.604Z,1007.76
2017-07-31T08:12:59.591Z,1007.85
2017-07-31T08:13:59.574Z,1007.16
2017-07-31T08:14:59.568Z,1007.65
2017-07-31T08:15:59.578Z,1007.76
2017-07-31T08:16:59.567Z,1007.97
2017-07-31T08:17:59.536Z,1007.66
2017-07-31T08:18:59.521Z,1007.82
2017-07-31T08:19:59.511Z,1007.11
2017-07-31T08:20:59.507Z,1006.91
2017-07-31T08:21:59.492Z,1006.94
2017-07-31T08:22:59.486Z,1006.93
2017-07-31T08:23:59.476Z,1006.95
2017-07-31T08:24:59.467Z,1007.01
2017-07-31T08:25:59.456Z,1006.96
2017-07-31T08:26:59.449Z,1006.92
2017-07-31T08:27:59.433Z,1006.92
2017-07-31T08:28:59.423Z,1007.1
2017-07-31T08:29:59.417Z,1007.31
2017-07-31T08:30:59.404Z,1006.92
2017-07-31T08:31:59.393Z,1007.22
2017-07-31T08:32:59.384Z,1007.09
2017-07-31T08:33:59.374Z,1007.34
2017-07-31T08:34:59.365Z,1007.31
2017-07-31T08:35:59.357Z,1007.28
2017-07-31T08:36:59.346Z,1007.25
2017-07-31T08:37:59.343Z,1007.01
2017-07-31T08:38:59.331Z,1007.24
2017-07-31T08:39:59.333Z,1007.3
2017-07-31T08:40:59.316Z,1007.33
2017-07-31T08:41:59.312Z,1007.31
2017-07-31T08:42:59.309Z,1007.14
2017-07-31T08:43:59.303Z,1007.26
2017-07-31T08:44:59.292Z,1007.2
2017-07-31T08:45:59.291Z,1007.24
2017-07-31T08:46:59.289Z,1007.27
2017-07-31T08:47:59.277Z,1007.13
2017-07-31T08:48:59.270Z,1007.17
2017-07-31T08:49:59.274Z,1007.19
2017-07-31T08:50:59.261Z,1007.01
2017-07-31T08:51:59.263Z,1007.07
2017-07-31T08:52:59.253Z,1007.23
2017-07-31T08:53:59.251Z,1007.26
2017-07-31T08:54:59.242Z,1007.26
2017-07-31T08:55:59.240Z,1007.18
2017-07-31T08:56:59.231Z,1007.2
2017-07-31T08:57:59.230Z,1007.19
2017-07-31T08:58:59.223Z,1007.19
2017-07-31T08:59:59.221Z,1007.15
2017-07-31T09:00:59.220Z,1007.14
2017-07-31T09:01:59.213Z,1007.11
2017-07-31T09:02:59.206Z,1007
2017-07-31T09:03:59.205Z,1007.09
2017-07-31T09:04:59.197Z,1007.1
2017-07-31T09:05:59.201Z,1007.04
2017-07-31T09:06:59.191Z,1007.06
2017-07-31T09:07:59.191Z,1007.07
2017-07-31T09:08:59.191Z,1007.08
2017-07-31T09:09:59.192Z,1007.1
2017-07-31T09:10:59.180Z,1007.08
2017-07-31T09:11:59.181Z,1007.07
2017-07-31T09:12:59.181Z,1007.07
2017-07-31T09:13:59.221Z,1007.03
2017-07-31T09:14:59.171Z,1007
2017-07-31T09:15:59.170Z,1006.99
2017-07-31T09:16:59.171Z,1007.09
2017-07-31T09:17:59.213Z,1007.12
2017-07-31T09:18:59.162Z,1007.25
2017-07-31T09:19:59.163Z,1007.33
2017-07-31T09:20:59.160Z,1007.36
2017-07-31T09:21:59.163Z,1007.27
2017-07-31T09:22:59.152Z,1007.29
2017-07-31T09:23:59.151Z,1007.26
2017-07-31T09:24:59.149Z,1007.26
2017-07-31T09:25:59.148Z,1007.28
2017-07-31T09:26:59.151Z,1007.38
2017-07-31T09:27:59.151Z,1007.37
2017-07-31T09:28:59.150Z,1007.27
2017-07-31T09:29:59.152Z,1007.24
2017-07-31T09:30:59.142Z,1007.16
2017-07-31T09:31:59.139Z,1007.09
2017-07-31T09:32:59.144Z,1007.09
2017-07-31T09:33:59.142Z,1007.03
2017-07-31T09:34:59.139Z,1007.1
2017-07-31T09:35:59.141Z,1007.09
2017-07-31T09:36:59.142Z,1007.14
2017-07-31T09:37:59.133Z,1007.09
2017-07-31T09:38:59.142Z,1007.11
2017-07-31T09:39:59.131Z,1007.03
2017-07-31T09:40:59.189Z,1007.12
2017-07-31T09:41:59.129Z,1007.07
2017-07-31T09:42:59.128Z,1007.1
2017-07-31T09:43:59.127Z,1007.11
2017-07-31T09:44:59.128Z,1007.17
2017-07-31T09:45:59.126Z,1007.05
2017-07-31T09:46:59.128Z,1007.1
2017-07-31T09:47:59.129Z,1007.12
2017-07-31T09:48:59.129Z,1007.19
2017-07-31T09:49:59.120Z,1007.14
2017-07-31T09:50:59.123Z,1007.16
2017-07-31T09:51:59.120Z,1007.1
2017-07-31T09:52:59.122Z,1007.09
2017-07-31T09:53:59.119Z,1007.22
2017-07-31T09:54:59.118Z,1007.11
2017-07-31T09:55:59.130Z,1007.18
2017-07-31T09:56:59.121Z,1007.14
2017-07-31T09:57:59.118Z,1007.12
2017-07-31T09:58:59.120Z,1007.18
2017-07-31T09:59:59.109Z,1007.19
2017-07-31T10:00:59.109Z,1007.23
2017-07-31T10:01:59.112Z,1007.18
2017-07-31T10:02:59.105Z,1007.16
2017-07-31T10:03:59.113Z,1007.19
2017-07-31T10:04:59.099Z,1007.13
2017-07-31T10:05:59.118Z,1006.99
2017-07-31T10:06:59.100Z,1007.05
2017-07-31T10:07:59.201Z,1007.05
2017-07-31T10:08:59.089Z,1007.07
2017-07-31T10:09:59.091Z,1007.06
2017-07-31T10:10:59.097Z,1007.07
2017-07-31T10:11:59.090Z,1007.05
2017-07-31T10:12:59.082Z,1007.18
2017-07-31T10:13:59.123Z,1007.13
2017-07-31T10:14:59.069Z,1007.08
2017-07-31T10:15:59.079Z,1007.11
2017-07-31T10:16:59.061Z,1007.16
2017-07-31T10:17:59.059Z,1007.14
2017-07-31T10:18:59.051Z,1007.1
2017-07-31T10:19:59.042Z,1007.12
2017-07-31T10:20:59.050Z,1007.14
2017-07-31T10:21:59.042Z,1007.06
2017-07-31T10:22:59.024Z,1007.19
2017-07-31T10:23:59.019Z,1007.13
2017-07-31T10:24:59.020Z,1007.17
2017-07-31T10:25:59.011Z,1007.14
2017-07-31T10:26:59.012Z,1007.16
2017-07-31T10:27:58.999Z,1007.22
2017-07-31T10:28:58.998Z,1007.17
2017-07-31T10:29:58.988Z,1007.3
2017-07-31T10:30:58.988Z,1007.31
2017-07-31T10:31:58.980Z,1007.43
2017-07-31T10:32:58.969Z,1007.34
2017-07-31T10:33:58.970Z,1007.34
2017-07-31T10:34:58.961Z,1007.33
2017-07-31T10:35:58.953Z,1007.32
2017-07-31T10:36:58.948Z,1007.42
2017-07-31T10:37:58.940Z,1007.48
2017-07-31T10:38:58.940Z,1007.34
2017-07-31T10:39:58.927Z,1007.32
2017-07-31T10:40:58.921Z,1007.45
2017-07-31T10:41:58.920Z,1007.45
2017-07-31T10:42:58.909Z,1007.42
2017-07-31T10:43:58.900Z,1007.46
2017-07-31T10:44:58.901Z,1007.42
2017-07-31T10:45:58.887Z,1007.46
2017-07-31T10:46:58.885Z,1007.44
2017-07-31T10:47:58.870Z,1007.5
2017-07-31T10:48:58.869Z,1007.49
2017-07-31T10:49:58.860Z,1007.46
2017-07-31T10:50:58.850Z,1007.5
2017-07-31T10:51:58.850Z,1007.51
2017-07-31T10:52:58.841Z,1007.41
2017-07-31T10:53:58.831Z,1007.45
2017-07-31T10:54:58.825Z,1007.41
2017-07-31T10:55:58.819Z,1007.47
2017-07-31T10:56:58.810Z,1007.52
2017-07-31T10:57:58.800Z,1007.6
2017-07-31T10:58:58.797Z,1007.55
2017-07-31T10:59:58.791Z,1007.57
2017-07-31T11:00:58.778Z,1007.5
2017-07-31T11:01:58.775Z,1007.49
2017-07-31T11:02:58.760Z,1007.45
2017-07-31T11:03:58.759Z,1007.39
2017-07-31T11:04:58.751Z,1007.43
2017-07-31T11:05:58.740Z,1007.45
2017-07-31T11:06:58.734Z,1007.49
2017-07-31T11:07:58.730Z,1007.52
2017-07-31T11:08:58.735Z,1007.52
2017-07-31T11:09:58.711Z,1007.52
2017-07-31T11:10:58.702Z,1007.49
2017-07-31T11:11:58.697Z,1007.52
2017-07-31T11:12:58.693Z,1007.5
2017-07-31T11:13:58.677Z,1007.52
2017-07-31T11:14:58.677Z,1007.55
2017-07-31T11:15:58.664Z,1007.63
2017-07-31T11:16:58.651Z,1007.6
2017-07-31T11:17:58.648Z,1007.61
2017-07-31T11:18:58.640Z,1007.62
2017-07-31T11:19:58.640Z,1007.68
2017-07-31T11:20:58.639Z,1007.69
2017-07-31T11:21:58.622Z,1007.67
2017-07-31T11:22:58.610Z,1007.73
2017-07-31T11:23:58.606Z,1007.66
2017-07-31T11:24:58.600Z,1007.65
2017-07-31T11:25:58.640Z,1007.68
2017-07-31T11:26:58.581Z,1007.65
2017-07-31T11:27:58.571Z,1007.67
2017-07-31T11:28:58.564Z,1007.63
2017-07-31T11:29:58.561Z,1007.65
2017-07-31T11:30:58.546Z,1007.63
2017-07-31T11:31:58.539Z,1007.59
2017-07-31T11:32:58.529Z,1007.56
2017-07-31T11:33:58.525Z,1007.57
2017-07-31T11:34:58.523Z,1007.54
2017-07-31T11:35:58.519Z,1007.58
2017-07-31T11:36:58.498Z,1007.56
2017-07-31T11:37:58.490Z,1007.61
2017-07-31T11:38:58.489Z,1007.6
2017-07-31T11:39:58.482Z,1007.69
2017-07-31T11:40:58.469Z,1007.72
2017-07-31T11:41:58.467Z,1007.74
2017-07-31T11:42:58.459Z,1007.77
2017-07-31T11:43:58.446Z,1007.73
2017-07-31T11:44:58.435Z,1007.66
2017-07-31T11:45:58.438Z,1007.71
2017-07-31T11:46:58.423Z,1007.72
2017-07-31T11:47:58.413Z,1007.78
2017-07-31T11:48:58.410Z,1007.72
2017-07-31T11:49:58.398Z,1007.71
2017-07-31T11:50:58.398Z,1007.71
2017-07-31T11:51:58.390Z,1007.78
2017-07-31T11:52:58.381Z,1007.81
2017-07-31T11:53:58.371Z,1007.72
2017-07-31T11:54:58.359Z,1007.8
2017-07-31T11:55:58.358Z,1007.74
2017-07-31T11:56:58.352Z,1007.77
2017-07-31T11:57:58.342Z,1007.82
2017-07-31T11:58:58.356Z,1007.89
2017-07-31T11:59:58.327Z,1007.86
2017-07-31T12:00:58.329Z,1007.82
2017-07-31T12:01:58.311Z,1007.83
2017-07-31T12:02:58.309Z,1007.72
2017-07-31T12:03:58.302Z,1007.74
2017-07-31T12:04:58.290Z,1007.66
2017-07-31T12:05:58.280Z,1007.73
2017-07-31T12:06:58.275Z,1007.61
2017-07-31T12:07:58.271Z,1007.76